Terminal Aerodrome Forecast
Issued by NWS Columbia, SC

Home | Current Version | Previous Version | Text Only | Print | Product List | Glossary On
Versions: 1 2 3 4 5 6 7 8 9 10 11 12 13 14 15 16 17 18 19 20 21 22 23 24 25 26 27 28
000
FTUS42 KCAE 232100 AAA
TAFCAE
TAF AMD
KCAE 232118Z 2321/2418 05009G16KT P6SM SCT025 BKN060 BKN080
      TEMPO 2321/2323 BKN025 OVC060
     FM240000 04008KT P6SM BKN035 OVC090
     FM240800 03008KT P6SM SCT015 BKN025 OVC040
     FM241500 03010G16KT P6SM SCT025 BKN035 OVC080=

USA.gov is the U.S. government's official web portal to all federal, state and local government web resources and services.